Beaver Creek (Missouri), Bradleyville (07054080)

StateMissouriCurrentGood (432 cfs)
RiverBeaver CreekFlood - The river is flooding. Obstacles can be treacherous or deadly. The river should be avoided at this stage for casual trips and definitely for the inexperienced. Trips should be attempted only with protective gear and equipment.Flood(none)
Updated2019-12-11 13:15 (28 minutes ago)High - The river is high and potentially dangerous, especially for the young and / or inexperienced. Normal stream obstacles are sometimes difficult to navigate. Extended distances can be attempted, but canoe travel may not be advisable.High(none)
Discharge432 cfs (median: 108 cfs)Good - Conditions are ideal for a canoe or kayak. Boats typically will drag on fewer than one-quarter of riffles, if at all, and portages are unnecessary or rare. Normal float lengths can be attempted without a problem.Good200
Height3.49 feetLow - River is low but can still be floated. Some riffles are okay but most come with significant dragging and might need a portage. Float lengths should be reduced to accommodate low flow, dragging, and portages.Low100
TrendRising (falling over 24 hours)Poor - River is too low to float comfortably. Most or all riffles will drag or must be portaged and some obstacles (such as slick shelf rock) cause undue problems. Avoid the river at this stage for casual paddling trips.Poor50
USGSExternal icon USGS Site for Bradleyville (07054080)LocationExternal icon Google Maps

Trending Data

Plot Image
ObservationHeightDischargeMaximum
Discharge
Minimum
Discharge
Mean
Discharge
P05P10P20P25P50
(Median)
P75P80P90P95
2019-12-11 13:15 3.49 432 636 (2004) 31 (2017) 158 31 33 42 42 108 184 226 461 593
2019-12-11 12:15 3.48 429 636 (2004) 31 (2017) 158 31 33 42 42 108 184 226 461 593
2019-12-11 11:15 3.48 429 636 (2004) 31 (2017) 158 31 33 42 42 108 184 226 461 593
2019-12-11 10:15 3.49 432 636 (2004) 31 (2017) 158 31 33 42 42 108 184 226 461 593
2019-12-11 09:15 3.50 435 636 (2004) 31 (2017) 158 31 33 42 42 108 184 226 461 593
2019-12-11 08:15 3.50 435 636 (2004) 31 (2017) 158 31 33 42 42 108 184 226 461 593
2019-12-11 07:15 3.52 442 636 (2004) 31 (2017) 158 31 33 42 42 108 184 226 461 593
2019-12-11 06:15 3.52 442 636 (2004) 31 (2017) 158 31 33 42 42 108 184 226 461 593
2019-12-11 05:15 3.52 442 636 (2004) 31 (2017) 158 31 33 42 42 108 184 226 461 593
2019-12-11 04:15 3.52 442 636 (2004) 31 (2017) 158 31 33 42 42 108 184 226 461 593
2019-12-11 03:15 3.53 445 636 (2004) 31 (2017) 158 31 33 42 42 108 184 226 461 593
2019-12-11 02:15 3.53 445 636 (2004) 31 (2017) 158 31 33 42 42 108 184 226 461 593
2019-12-11 01:15 3.53 445 636 (2004) 31 (2017) 158 31 33 42 42 108 184 226 461 593
2019-12-11 00:15 3.53 445 636 (2004) 31 (2017) 158 31 33 42 42 108 184 226 461 593
2019-12-10 23:15 3.55 451 804 (2004) 30 (2017) 174 31 34 43 44 96 199 248 569 746
2019-12-10 22:15 3.55 451 804 (2004) 30 (2017) 174 31 34 43 44 96 199 248 569 746
2019-12-10 21:15 3.54 448 804 (2004) 30 (2017) 174 31 34 43 44 96 199 248 569 746
2019-12-10 20:15 3.56 454 804 (2004) 30 (2017) 174 31 34 43 44 96 199 248 569 746
2019-12-10 19:15 3.56 454 804 (2004) 30 (2017) 174 31 34 43 44 96 199 248 569 746
2019-12-10 18:15 3.56 454 804 (2004) 30 (2017) 174 31 34 43 44 96 199 248 569 746
2019-12-10 17:15 3.56 454 804 (2004) 30 (2017) 174 31 34 43 44 96 199 248 569 746
2019-12-10 16:15 3.57 458 804 (2004) 30 (2017) 174 31 34 43 44 96 199 248 569 746
2019-12-10 15:15 3.58 461 804 (2004) 30 (2017) 174 31 34 43 44 96 199 248 569 746
2019-12-10 14:15 3.57 458 804 (2004) 30 (2017) 174 31 34 43 44 96 199 248 569 746
2019-12-10 13:15 3.59 464 804 (2004) 30 (2017) 174 31 34 43 44 96 199 248 569 746
2019-12-10 12:15 3.61 471 804 (2004) 30 (2017) 174 31 34 43 44 96 199 248 569 746
2019-12-10 11:15 3.59 464 804 (2004) 30 (2017) 174 31 34 43 44 96 199 248 569 746
2019-12-10 10:15 3.58 461 804 (2004) 30 (2017) 174 31 34 43 44 96 199 248 569 746
2019-12-10 09:15 3.62 474 804 (2004) 30 (2017) 174 31 34 43 44 96 199 248 569 746
2019-12-10 08:15 3.61 471 804 (2004) 30 (2017) 174 31 34 43 44 96 199 248 569 746
2019-12-10 07:15 3.62 474 804 (2004) 30 (2017) 174 31 34 43 44 96 199 248 569 746
2019-12-10 06:15 3.63 477 804 (2004) 30 (2017) 174 31 34 43 44 96 199 248 569 746
2019-12-10 05:15 3.64 481 804 (2004) 30 (2017) 174 31 34 43 44 96 199 248 569 746
2019-12-10 04:15 3.64 481 804 (2004) 30 (2017) 174 31 34 43 44 96 199 248 569 746
2019-12-10 03:15 3.66 488 804 (2004) 30 (2017) 174 31 34 43 44 96 199 248 569 746
2019-12-10 02:15 3.66 488 804 (2004) 30 (2017) 174 31 34 43 44 96 199 248 569 746
2019-12-10 01:15 3.67 491 804 (2004) 30 (2017) 174 31 34 43 44 96 199 248 569 746
2019-12-10 00:15 3.66 488 804 (2004) 30 (2017) 174 31 34 43 44 96 199 248 569 746
2019-12-09 23:15 3.66 488 750 (1995) 23 (2008) 160 25 31 40 44 73 165 248 575 745
2019-12-09 22:15 3.68 494 750 (1995) 23 (2008) 160 25 31 40 44 73 165 248 575 745
2019-12-09 21:15 3.68 494 750 (1995) 23 (2008) 160 25 31 40 44 73 165 248 575 745
2019-12-09 20:15 3.68 494 750 (1995) 23 (2008) 160 25 31 40 44 73 165 248 575 745
2019-12-09 19:15 3.70 501 750 (1995) 23 (2008) 160 25 31 40 44 73 165 248 575 745
2019-12-09 18:15 3.70 501 750 (1995) 23 (2008) 160 25 31 40 44 73 165 248 575 745
2019-12-09 17:15 3.70 501 750 (1995) 23 (2008) 160 25 31 40 44 73 165 248 575 745
2019-12-09 16:15 3.71 505 750 (1995) 23 (2008) 160 25 31 40 44 73 165 248 575 745
2019-12-09 15:15 3.71 505 750 (1995) 23 (2008) 160 25 31 40 44 73 165 248 575 745
2019-12-09 14:15 3.74 515 750 (1995) 23 (2008) 160 25 31 40 44 73 165 248 575 745
2019-12-09 13:15 3.72 508 750 (1995) 23 (2008) 160 25 31 40 44 73 165 248 575 745
2019-12-09 12:15 3.75 518 750 (1995) 23 (2008) 160 25 31 40 44 73 165 248 575 745
2019-12-09 11:15 3.73 511 750 (1995) 23 (2008) 160 25 31 40 44 73 165 248 575 745
2019-12-09 10:15 3.73 511 750 (1995) 23 (2008) 160 25 31 40 44 73 165 248 575 745
2019-12-09 09:15 3.73 511 750 (1995) 23 (2008) 160 25 31 40 44 73 165 248 575 745
2019-12-09 08:15 3.75 518 750 (1995) 23 (2008) 160 25 31 40 44 73 165 248 575 745
2019-12-09 07:15 3.74 515 750 (1995) 23 (2008) 160 25 31 40 44 73 165 248 575 745
2019-12-09 06:15 3.76 522 750 (1995) 23 (2008) 160 25 31 40 44 73 165 248 575 745
2019-12-09 05:15 3.76 522 750 (1995) 23 (2008) 160 25 31 40 44 73 165 248 575 745
2019-12-09 04:15 3.76 522 750 (1995) 23 (2008) 160 25 31 40 44 73 165 248 575 745
2019-12-09 03:15 3.75 518 750 (1995) 23 (2008) 160 25 31 40 44 73 165 248 575 745
2019-12-09 02:15 3.76 522 750 (1995) 23 (2008) 160 25 31 40 44 73 165 248 575 745
2019-12-09 01:15 3.76 522 750 (1995) 23 (2008) 160 25 31 40 44 73 165 248 575 745
2019-12-09 00:15 3.75 518 750 (1995) 23 (2008) 160 25 31 40 44 73 165 248 575 745
2019-12-08 23:15 3.76 522 1040 (2005) 21 (2008) 153 24 31 38 40 76 163 184 379 897
2019-12-08 22:15 3.77 525 1040 (2005) 21 (2008) 153 24 31 38 40 76 163 184 379 897
2019-12-08 21:15 3.78 529 1040 (2005) 21 (2008) 153 24 31 38 40 76 163 184 379 897
2019-12-08 20:15 3.78 529 1040 (2005) 21 (2008) 153 24 31 38 40 76 163 184 379 897
2019-12-08 19:15 3.78 529 1040 (2005) 21 (2008) 153 24 31 38 40 76 163 184 379 897
2019-12-08 18:15 3.79 533 1040 (2005) 21 (2008) 153 24 31 38 40 76 163 184 379 897
2019-12-08 17:15 3.78 529 1040 (2005) 21 (2008) 153 24 31 38 40 76 163 184 379 897
2019-12-08 16:15 3.79 533 1040 (2005) 21 (2008) 153 24 31 38 40 76 163 184 379 897
2019-12-08 15:15 3.80 536 1040 (2005) 21 (2008) 153 24 31 38 40 76 163 184 379 897
2019-12-08 14:15 3.80 536 1040 (2005) 21 (2008) 153 24 31 38 40 76 163 184 379 897
2019-12-08 13:15 3.80 536 1040 (2005) 21 (2008) 153 24 31 38 40 76 163 184 379 897
2019-12-08 12:15 3.80 536 1040 (2005) 21 (2008) 153 24 31 38 40 76 163 184 379 897
2019-12-08 11:15 3.82 543 1040 (2005) 21 (2008) 153 24 31 38 40 76 163 184 379 897
2019-12-08 10:15 3.82 543 1040 (2005) 21 (2008) 153 24 31 38 40 76 163 184 379 897
2019-12-08 09:15 3.83 547 1040 (2005) 21 (2008) 153 24 31 38 40 76 163 184 379 897
2019-12-08 08:15 3.84 550 1040 (2005) 21 (2008) 153 24 31 38 40 76 163 184 379 897
2019-12-08 07:15 3.83 547 1040 (2005) 21 (2008) 153 24 31 38 40 76 163 184 379 897
2019-12-08 06:15 3.82 543 1040 (2005) 21 (2008) 153 24 31 38 40 76 163 184 379 897
2019-12-08 05:15 3.84 550 1040 (2005) 21 (2008) 153 24 31 38 40 76 163 184 379 897
2019-12-08 04:15 3.83 547 1040 (2005) 21 (2008) 153 24 31 38 40 76 163 184 379 897
2019-12-08 03:15 3.84 550 1040 (2005) 21 (2008) 153 24 31 38 40 76 163 184 379 897
2019-12-08 02:15 3.84 550 1040 (2005) 21 (2008) 153 24 31 38 40 76 163 184 379 897
2019-12-08 01:15 3.85 554 1040 (2005) 21 (2008) 153 24 31 38 40 76 163 184 379 897
2019-12-08 00:15 3.86 558 1040 (2005) 21 (2008) 153 24 31 38 40 76 163 184 379 897
2019-12-07 23:15 3.86 558 1580 (2005) 21 (2008) 186 24 32 37 40 76 189 223 444 1320
2019-12-07 22:15 3.86 558 1580 (2005) 21 (2008) 186 24 32 37 40 76 189 223 444 1320
2019-12-07 21:15 3.87 561 1580 (2005) 21 (2008) 186 24 32 37 40 76 189 223 444 1320
2019-12-07 20:15 3.87 561 1580 (2005) 21 (2008) 186 24 32 37 40 76 189 223 444 1320
2019-12-07 19:15 3.88 565 1580 (2005) 21 (2008) 186 24 32 37 40 76 189 223 444 1320
2019-12-07 18:15 3.89 569 1580 (2005) 21 (2008) 186 24 32 37 40 76 189 223 444 1320
2019-12-07 17:15 3.89 569 1580 (2005) 21 (2008) 186 24 32 37 40 76 189 223 444 1320
2019-12-07 16:15 3.90 572 1580 (2005) 21 (2008) 186 24 32 37 40 76 189 223 444 1320
2019-12-07 15:15 3.91 576 1580 (2005) 21 (2008) 186 24 32 37 40 76 189 223 444 1320
2019-12-07 14:15 3.92 580 1580 (2005) 21 (2008) 186 24 32 37 40 76 189 223 444 1320
2019-12-07 13:15 3.91 576 1580 (2005) 21 (2008) 186 24 32 37 40 76 189 223 444 1320
2019-12-07 12:15 3.92 580 1580 (2005) 21 (2008) 186 24 32 37 40 76 189 223 444 1320
2019-12-07 11:15 3.93 584 1580 (2005) 21 (2008) 186 24 32 37 40 76 189 223 444 1320
2019-12-07 10:15 3.94 587 1580 (2005) 21 (2008) 186 24 32 37 40 76 189 223 444 1320
2019-12-07 09:15 3.92 580 1580 (2005) 21 (2008) 186 24 32 37 40 76 189 223 444 1320
2019-12-07 08:15 3.94 587 1580 (2005) 21 (2008) 186 24 32 37 40 76 189 223 444 1320
2019-12-07 07:15 3.96 595 1580 (2005) 21 (2008) 186 24 32 37 40 76 189 223 444 1320
2019-12-07 06:15 3.96 595 1580 (2005) 21 (2008) 186 24 32 37 40 76 189 223 444 1320
2019-12-07 05:15 3.96 595 1580 (2005) 21 (2008) 186 24 32 37 40 76 189 223 444 1320
2019-12-07 04:15 3.99 606 1580 (2005) 21 (2008) 186 24 32 37 40 76 189 223 444 1320
2019-12-07 03:15 3.99 606 1580 (2005) 21 (2008) 186 24 32 37 40 76 189 223 444 1320
2019-12-07 02:15 3.98 602 1580 (2005) 21 (2008) 186 24 32 37 40 76 189 223 444 1320
2019-12-07 01:15 4.00 610 1580 (2005) 21 (2008) 186 24 32 37 40 76 189 223 444 1320
2019-12-07 00:15 3.98 602 1580 (2005) 21 (2008) 186 24 32 37 40 76 189 223 444 1320
2019-12-06 23:15 4.01 614 600 (1997) 21 (2008) 151 24 33 40 43 80 178 213 476 575
2019-12-06 22:15 4.00 610 600 (1997) 21 (2008) 151 24 33 40 43 80 178 213 476 575
2019-12-06 21:15 4.02 618 600 (1997) 21 (2008) 151 24 33 40 43 80 178 213 476 575
2019-12-06 20:15 4.02 618 600 (1997) 21 (2008) 151 24 33 40 43 80 178 213 476 575
2019-12-06 19:15 4.00 610 600 (1997) 21 (2008) 151 24 33 40 43 80 178 213 476 575
2019-12-06 18:15 4.03 622 600 (1997) 21 (2008) 151 24 33 40 43 80 178 213 476 575
2019-12-06 17:15 4.05 629 600 (1997) 21 (2008) 151 24 33 40 43 80 178 213 476 575
2019-12-06 16:15 4.06 633 600 (1997) 21 (2008) 151 24 33 40 43 80 178 213 476 575
2019-12-06 15:15 4.07 637 600 (1997) 21 (2008) 151 24 33 40 43 80 178 213 476 575
2019-12-06 14:15 4.07 637 600 (1997) 21 (2008) 151 24 33 40 43 80 178 213 476 575
2019-12-06 13:15 4.08 641 600 (1997) 21 (2008) 151 24 33 40 43 80 178 213 476 575
2019-12-06 12:15 4.10 649 600 (1997) 21 (2008) 151 24 33 40 43 80 178 213 476 575
2019-12-06 11:15 4.10 649 600 (1997) 21 (2008) 151 24 33 40 43 80 178 213 476 575
2019-12-06 10:15 4.11 653 600 (1997) 21 (2008) 151 24 33 40 43 80 178 213 476 575
2019-12-06 09:15 4.11 653 600 (1997) 21 (2008) 151 24 33 40 43 80 178 213 476 575
2019-12-06 08:15 4.13 661 600 (1997) 21 (2008) 151 24 33 40 43 80 178 213 476 575
2019-12-06 07:15 4.12 657 600 (1997) 21 (2008) 151 24 33 40 43 80 178 213 476 575
2019-12-06 06:15 4.15 669 600 (1997) 21 (2008) 151 24 33 40 43 80 178 213 476 575
2019-12-06 05:15 4.16 673 600 (1997) 21 (2008) 151 24 33 40 43 80 178 213 476 575
2019-12-06 04:15 4.15 669 600 (1997) 21 (2008) 151 24 33 40 43 80 178 213 476 575
2019-12-06 03:15 4.17 677 600 (1997) 21 (2008) 151 24 33 40 43 80 178 213 476 575
2019-12-06 02:15 4.16 673 600 (1997) 21 (2008) 151 24 33 40 43 80 178 213 476 575
2019-12-06 01:15 4.19 685 600 (1997) 21 (2008) 151 24 33 40 43 80 178 213 476 575
2019-12-06 00:15 4.18 681 600 (1997) 21 (2008) 151 24 33 40 43 80 178 213 476 575
2019-12-05 23:15 4.20 689 647 (1997) 21 (2008) 156 24 34 41 44 77 185 236 493 630
2019-12-05 22:15 4.20 689 647 (1997) 21 (2008) 156 24 34 41 44 77 185 236 493 630
2019-12-05 21:15 4.22 698 647 (1997) 21 (2008) 156 24 34 41 44 77 185 236 493 630
2019-12-05 20:15 4.23 702 647 (1997) 21 (2008) 156 24 34 41 44 77 185 236 493 630
2019-12-05 19:15 4.23 702 647 (1997) 21 (2008) 156 24 34 41 44 77 185 236 493 630
2019-12-05 18:15 4.24 706 647 (1997) 21 (2008) 156 24 34 41 44 77 185 236 493 630
2019-12-05 17:15 4.26 714 647 (1997) 21 (2008) 156 24 34 41 44 77 185 236 493 630
2019-12-05 16:15 4.24 706 647 (1997) 21 (2008) 156 24 34 41 44 77 185 236 493 630
2019-12-05 15:15 4.26 714 647 (1997) 21 (2008) 156 24 34 41 44 77 185 236 493 630
2019-12-05 14:15 4.27 718 647 (1997) 21 (2008) 156 24 34 41 44 77 185 236 493 630
2019-12-05 13:15 4.26 714 647 (1997) 21 (2008) 156 24 34 41 44 77 185 236 493 630
2019-12-05 12:15 4.28 723 647 (1997) 21 (2008) 156 24 34 41 44 77 185 236 493 630
2019-12-05 11:15 4.28 723 647 (1997) 21 (2008) 156 24 34 41 44 77 185 236 493 630
2019-12-05 10:15 4.30 731 647 (1997) 21 (2008) 156 24 34 41 44 77 185 236 493 630
2019-12-05 09:15 4.29 727 647 (1997) 21 (2008) 156 24 34 41 44 77 185 236 493 630
2019-12-05 08:15 4.32 740 647 (1997) 21 (2008) 156 24 34 41 44 77 185 236 493 630
2019-12-05 07:15 4.33 744 647 (1997) 21 (2008) 156 24 34 41 44 77 185 236 493 630
2019-12-05 06:15 4.32 740 647 (1997) 21 (2008) 156 24 34 41 44 77 185 236 493 630
2019-12-05 05:15 4.35 753 647 (1997) 21 (2008) 156 24 34 41 44 77 185 236 493 630
2019-12-05 04:15 4.36 757 647 (1997) 21 (2008) 156 24 34 41 44 77 185 236 493 630
2019-12-05 03:15 4.35 753 647 (1997) 21 (2008) 156 24 34 41 44 77 185 236 493 630
2019-12-05 02:15 4.37 761 647 (1997) 21 (2008) 156 24 34 41 44 77 185 236 493 630
2019-12-05 01:15 4.39 770 647 (1997) 21 (2008) 156 24 34 41 44 77 185 236 493 630
2019-12-05 00:15 4.40 774 647 (1997) 21 (2008) 156 24 34 41 44 77 185 236 493 630
2019-12-04 23:15 4.39 770 672 (1997) 21 (2008) 153 24 34 40 43 80 151 283 464 623
2019-12-04 22:15 4.42 783 672 (1997) 21 (2008) 153 24 34 40 43 80 151 283 464 623
2019-12-04 21:15 4.42 783 672 (1997) 21 (2008) 153 24 34 40 43 80 151 283 464 623
2019-12-04 20:15 4.44 792 672 (1997) 21 (2008) 153 24 34 40 43 80 151 283 464 623
2019-12-04 19:15 4.47 805 672 (1997) 21 (2008) 153 24 34 40 43 80 151 283 464 623
2019-12-04 18:15 4.49 814 672 (1997) 21 (2008) 153 24 34 40 43 80 151 283 464 623
2019-12-04 17:15 4.48 810 672 (1997) 21 (2008) 153 24 34 40 43 80 151 283 464 623
2019-12-04 16:15 4.49 814 672 (1997) 21 (2008) 153 24 34 40 43 80 151 283 464 623
2019-12-04 15:15 4.49 814 672 (1997) 21 (2008) 153 24 34 40 43 80 151 283 464 623
2019-12-04 14:15 4.51 824 672 (1997) 21 (2008) 153 24 34 40 43 80 151 283 464 623
2019-12-04 13:15 4.51 824 672 (1997) 21 (2008) 153 24 34 40 43 80 151 283 464 623
2019-12-04 12:15 4.53 833 672 (1997) 21 (2008) 153 24 34 40 43 80 151 283 464 623
2019-12-04 11:15 4.57 851 672 (1997) 21 (2008) 153 24 34 40 43 80 151 283 464 623
2019-12-04 10:15 4.56 846 672 (1997) 21 (2008) 153 24 34 40 43 80 151 283 464 623
2019-12-04 09:15 4.58 856 672 (1997) 21 (2008) 153 24 34 40 43 80 151 283 464 623
2019-12-04 08:15 4.61 870 672 (1997) 21 (2008) 153 24 34 40 43 80 151 283 464 623
2019-12-04 07:15 4.64 884 672 (1997) 21 (2008) 153 24 34 40 43 80 151 283 464 623
2019-12-04 06:15 4.66 893 672 (1997) 21 (2008) 153 24 34 40 43 80 151 283 464 623
2019-12-04 05:15 4.67 898 672 (1997) 21 (2008) 153 24 34 40 43 80 151 283 464 623
2019-12-04 04:15 4.67 898 672 (1997) 21 (2008) 153 24 34 40 43 80 151 283 464 623
2019-12-04 03:15 4.66 893 672 (1997) 21 (2008) 153 24 34 40 43 80 151 283 464 623
2019-12-04 02:15 4.67 898 672 (1997) 21 (2008) 153 24 34 40 43 80 151 283 464 623
2019-12-04 01:15 4.69 908 672 (1997) 21 (2008) 153 24 34 40 43 80 151 283 464 623
2019-12-04 00:15 4.70 912 672 (1997) 21 (2008) 153 24 34 40 43 80 151 283 464 623

A total of 182 rows are displayed for years 1995 through 2018.

Trips for Beaver Creek (Missouri), Bradleyville (07054080)

DateStartEndDistanceConditionDischargeHeightFishingDetails
Click for details2019-05-25 Jackson Mill CR 437 Total trip distance: 9.2 miles9.2 Good 629 4.43 Great GSF
RB
SMB
GSF, RB, SMB
Bartlett, Joe
Bartlett, Renee
Edmond, Brian
Edmond, Julian
Grindstaff, Brian
Grindstaff, Nathaniel
Hayes, Katie
Larsen, Lisa
Travers, Gina
Tuter, Kristin
Van Someren, Tom
Bartlett, Joe; Bartlett, Renee; Edmond, Brian; Edmond, Julian; Grindstaff, Brian; Grindstaff, Nathaniel; Hayes, Katie; Larsen, Lisa; Travers, Gina; Tuter, Kristin; Van Someren, Tom
The water level on this trip was nearly perfect. There is no access at MO 76 despite the guidebook information. We put in at Jackson Hollow instead. The takeout is now gated and the landowner there is not friendly to paddlers (as we were told by some locals).The water level on this trip was nearly perfect. There is no access at MO 76 despite the guidebook information. We put in at Jackson Hollow instead. The takeout is now gated and the landowner there is not friendly to paddlers (as we were told by some locals). USGS Gauge Data:
Bradleyville (07054080)
Discharge: 629
Height: 4.43
<b>USGS Gauge Data:</b></br />Bradleyville (07054080)<br />Discharge: 629<br />Height: 4.43
Source: EdmondSource: Edmond
Click for details2017-04-01 Brownbranch Bradleyville Total trip distance: 7.9 miles7.9 Good 532 4.01 Good LSF
SMB
LSF, SMB
Arnold, Al
Edmond, Brian
Edmond, Julian
Larsen, Chris
Larsen, Lisa
Turk, Scott
Van Someren, Tom
Arnold, Al; Edmond, Brian; Edmond, Julian; Larsen, Chris; Larsen, Lisa; Turk, Scott; Van Someren, Tom
The water was still high but coming down. It was relatively clear but still murky. At about 2/3 and 3/4, there were at least three tree obstacles that would have blocked us at a lower water level. Fortunately, there is an outfitter at Brownbranch that does some work clearing the river.The water was still high but coming down. It was relatively clear but still murky. At about 2/3 and 3/4, there were at least three tree obstacles that would have blocked us at a lower water level. Fortunately, there is an outfitter at Brownbranch that does some work clearing the river. USGS Gauge Data:
Bradleyville (07054080)
Discharge: 532
Height: 4.01
<b>USGS Gauge Data:</b></br />Bradleyville (07054080)<br />Discharge: 532<br />Height: 4.01
Source: EdmondSource: Edmond
Click for details2019-04-21 Brownbranch Bradleyville Total trip distance: 7.9 miles7.9 Good 496 3.96 Fair BLG
GSF
SMB
BLG, GSF, SMB
Bartlett, Joe
Bartlett, Renee
Dudenhoffer, Todd
Van Someren, Tom
Bartlett, Joe; Bartlett, Renee; Dudenhoffer, Todd; Van Someren, Tom
The water level was absolutely STELLAR, moving along great the entire length. No obstructions in the river, either. While the number of fish we caught placed us in the "fair" region we all judged the fishing as "poor". Note too: Beaver Creek Canoe Rental is charging floaters a $10 per boat "Access fee" to put in there.The water level was absolutely STELLAR, moving along great the entire length. No obstructions in the river, either. While the number of fish we caught placed us in the USGS Gauge Data:
Bradleyville (07054080)
Discharge: 496
Height: 3.96
<b>USGS Gauge Data:</b></br />Bradleyville (07054080)<br />Discharge: 496<br />Height: 3.96
Source: Van SomerenSource: Van Someren
Click for details2016-07-16 Brownbranch Bradleyville Total trip distance: 7.9 miles7.9 Good 276 3.15 Excellent LSF
GSF
LMB
SMB
RB
LSF, GSF, LMB, SMB, RB
Amburn, Andrea
Amburn, Matt
Dudenhoeffer, Todd
Edmond, Brian
Eth, Joe
Van Someren, Tom
Amburn, Andrea; Amburn, Matt; Dudenhoeffer, Todd; Edmond, Brian; Eth, Joe; Van Someren, Tom
This was an excellent float trip. The water was nearly perfect (a little bit higher would have been nice but it was fantastic just like this). Joe caught more than 50 fish. I caught nearly 30 or more. Even when we didn't catch anything, we could feel fish hitting the lure.This was an excellent float trip. The water was nearly perfect (a little bit higher would have been nice but it was fantastic just like this). Joe caught more than 50 fish. I caught nearly 30 or more. Even when we didn't catch anything, we could feel fish hitting the lure. USGS Gauge Data:
Bradleyville (07054080)
Discharge: 276
Height: 3.15
<b>USGS Gauge Data:</b></br />Bradleyville (07054080)<br />Discharge: 276<br />Height: 3.15
Source: EdmondSource: Edmond
Click for details2015-04-21 Brownbranch Bradleyville Total trip distance: 7.9 miles7.9 Good 210 2.63 Good SMB
RB
SMB, RB
Coroleuski, Linda
Edmond, Brian
Ligon, Day
McKnight, Don
Coroleuski, Linda; Edmond, Brian; Ligon, Day; McKnight, Don
The river level was nearly perfect although there were a few places where the water level was a bit low. I wouldn't want to float this river any lower than this, except as a good fishing trip.The river level was nearly perfect although there were a few places where the water level was a bit low. I wouldn't want to float this river any lower than this, except as a good fishing trip. USGS Gauge Data:
Bradleyville (07054080)
Discharge: 210
Height: 2.63
<b>USGS Gauge Data:</b></br />Bradleyville (07054080)<br />Discharge: 210<br />Height: 2.63
Source: EdmondSource: Edmond
Click for details2009-08-19 Brownbranch Bradleyville Total trip distance: 7.9 miles7.9 Low 77 1.81 Excellent SMB
RB
LSF
BLG
SMB, RB, LSF, BLG
Fillmore, Brian
Ligon, Day
Fillmore, Brian; Ligon, Day
No notes for this trip<i>No notes for this trip</i> USGS Gauge Data:
Bradleyville (07054080)
Discharge: 77
Height: 1.81
<b>USGS Gauge Data:</b></br />Bradleyville (07054080)<br />Discharge: 77<br />Height: 1.81
Source: FillmoreSource: Fillmore
Click for details2009-08-22 Brownbranch Bradleyville Total trip distance: 7.9 miles7.9 Poor 74 1.79 None NoneNone Bowe, Michelle
Edmond, Alex
Edmond, Brian
Edmond, Joseph
Bowe, Michelle; Edmond, Alex; Edmond, Brian; Edmond, Joseph
No notes for this trip<i>No notes for this trip</i> USGS Gauge Data:
Bradleyville (07054080)
Discharge: 74
Height: 1.79
<b>USGS Gauge Data:</b></br />Bradleyville (07054080)<br />Discharge: 74<br />Height: 1.79
Source: EdmondSource: Edmond

A total of 7 rows are displayed.

Trip Summary for Beaver Creek (Missouri), Bradleyville (07054080)

Miles56.6
Trips7
People26
Dates7
Years5
Months4
Rows7
Sources3

Condition Descriptions

Fishing Conditions

Fish Species

Notes

Classic Trip List

The classic River Trips application is still available for use. It is updated with the new system using a data retrofit. It is no longer maintained. The original River Trips application is no longer updated (as of 1 Dec 2016) but can be checked for errors or for the condition of the data before it was converted to the new system.